Zagreb, Croatia
Current Conditions -  °F | °C
As of 12:00 PM on Friday 28 Nov 2014 (Local Time) from LDZA Reporting Station
Haze Haze  
Wind Chill: 41°   Ceiling: 800
Heat Index: 41°   Visibility: 3mi
Dew Point: 37°   Wind: 2mph
Humidity: 87%   Direction: NA
Pressure: 30.03"   Gusts: NA
Location:  45.8°N, 15.97°E
Report Text: LDZA 281000Z VRB02KT 5000 BR OVC008 05/03 Q1017 BECMG 7000OVC010
Loading
Personal Weather Stations






























Interactive Weather Map New forecast layout! Learn more

10-Day Weather Forecast

Advertisements
Track Severe Weather on mobile